Sonangol Maiombe — C6DC7 — position and weather

sailwx.info

Track history (hours):
 
Tides and Currents Weather Stations Pressure Air Temp Water Temp Dewpoint Dewpoint Depression Visibility Wind Speed Wind Dir Waves Ship Positions

Sonangol Maiombe

Last reported at 2017-Oct-08 08:01 UTC. Time now 2017-Oct-17 04:28 UTC.
Position N 27°40' W 016°25'.
Warning: this ship's position is 8 days out of date.

Length 274 m; draft 9.1 m.

Type: Tanker. MMSI: 311000639.

Date/timePositionNaut miles runAvg speedWind from/ knotsBaromVisibWave heightAir tempDewpointWater temp
2017-Oct-08 08:01N 27°40' W 016°25'113.1
2017-Oct-08 07:55N 27°41' W 016°25'713.7
2017-Oct-08 07:22N 27°49' W 016°23'513.1
2017-Oct-08 06:59N 27°53' W 016°22'913.0
2017-Oct-08 06:16N 28°02' W 016°18'413.4
2017-Oct-08 05:59N 28°05' W 016°15'713.2
2017-Oct-08 05:27N 28°11' W 016°10'713.4
2017-Oct-08 04:57N 28°16' W 016°05'713.4
2017-Oct-08 04:27N 28°21' W 016°00'613.5
2017-Oct-08 04:00N 28°25' W 015°56'713.4
2017-Oct-08 03:29N 28°31' W 015°51'713.3
2017-Oct-08 03:00N 28°36' W 015°46'613.1
2017-Oct-08 02:30N 28°40' W 015°41'713.0
2017-Oct-08 02:00N 28°45' W 015°36'713.1
2017-Oct-08 01:30N 28°49' W 015°30'713.1
2017-Oct-08 01:00N 28°53' W 015°25'713.2
2017-Oct-08 00:30N 28°58' W 015°19'612.9
2017-Oct-08 00:00N 29°02' W 015°14'35412.8
2017-Oct-06 20:23N 33°03' W 010°10'713.1
2017-Oct-06 19:49N 33°08' W 010°03'513.1
2017-Oct-06 19:28N 33°11' W 009°59'613.0
2017-Oct-06 19:00N 33°15' W 009°54'713.2
2017-Oct-06 18:29N 33°20' W 009°48'713.4
2017-Oct-06 17:59N 33°24' W 009°42'713.5
2017-Oct-06 17:30N 33°29' W 009°36'713.5
2017-Oct-06 17:00N 33°33' W 009°30'713.3
2017-Oct-06 16:30N 33°38' W 009°24'713.4
2017-Oct-06 15:59N 33°43' W 009°18'613.4
2017-Oct-06 15:30N 33°47' W 009°13'613.0
2017-Oct-06 15:00N 33°52' W 009°07'713.0
2017-Oct-06 14:30N 33°56' W 009°01'713.1
2017-Oct-06 13:56N 34°01' W 008°54'4312.8
2017-Oct-06 10:35N 34°30' W 008°16'313.0
2017-Oct-06 10:21N 34°32' W 008°13'513.1
2017-Oct-06 09:59N 34°35' W 008°09'613.2
2017-Oct-06 09:30N 34°40' W 008°04'813.3
2017-Oct-06 08:56N 34°45' W 007°57'3613.2
2017-Oct-06 06:14N 35°09' W 007°25'312.6
2017-Oct-06 06:00N 35°11' W 007°22'1313.1
2017-Oct-06 05:01N 35°20' W 007°10'212.7
2017-Oct-06 04:49N 35°21' W 007°08'413.1
2017-Oct-06 04:30N 35°24' W 007°04'613.0
2017-Oct-06 04:00N 35°28' W 006°58'1012.8
2017-Oct-06 03:14N 35°35' W 006°50'312.8
2017-Oct-06 03:00N 35°37' W 006°47'1013.1
2017-Oct-06 02:13N 35°44' W 006°37'4312.9
2017-Oct-05 22:55N 35°58' W 005°48'1014.3
2017-Oct-05 22:14N 35°58' W 005°36'312.8
2017-Oct-05 22:00N 35°59' W 005°32'611.3
2017-Oct-05 21:30N 36°01' W 005°26'5 9.5
2017-Oct-05 21:01N 36°05' W 005°23'2 3.4
2017-Oct-05 20:28N 36°06' W 005°22'0 0.0
2017-Oct-05 19:58N 36°06' W 005°22'0 0.2
2017-Oct-05 19:28N 36°06' W 005°22'0 0.1
2017-Oct-05 18:55N 36°06' W 005°22'0 0.0
2017-Oct-05 18:28N 36°06' W 005°22'0 0.1
2017-Oct-05 17:58N 36°06' W 005°22'0 0.3
2017-Oct-05 17:28N 36°06' W 005°22'0 0.0
2017-Oct-05 16:58N 36°06' W 005°22'0 0.0
2017-Oct-05 15:28N 36°06' W 005°22'0 0.0
2017-Oct-05 14:52N 36°06' W 005°22'0 0.0
2017-Oct-05 14:28N 36°06' W 005°22'0 0.0
2017-Oct-05 13:58N 36°06' W 005°22'0 0.0
2017-Oct-05 13:28N 36°06' W 005°22'0 0.1
2017-Oct-05 12:58N 36°06' W 005°22'0 0.2
2017-Oct-05 12:28N 36°06' W 005°22'0 0.1
2017-Oct-05 11:55N 36°06' W 005°22'0 0.0
2017-Oct-05 11:28N 36°06' W 005°22'0 0.0
2017-Oct-05 10:58N 36°06' W 005°22'0 0.1
2017-Oct-05 10:28N 36°06' W 005°22'0 0.1
2017-Oct-05 09:58N 36°06' W 005°22'0 0.0
2017-Oct-05 09:28N 36°06' W 005°22'0 0.0
2017-Oct-05 08:55N 36°06' W 005°22'0 0.0
2017-Oct-05 08:28N 36°06' W 005°22'  
Track history (hours):
 
Tides and Currents Weather Stations Pressure Air Temp Water Temp Dewpoint Dewpoint Depression Visibility Wind Speed Wind Dir Waves Ship Positions

Sonangol Maiombe

Last reported at 2017-Oct-08 08:01 UTC. Time now 2017-Oct-17 04:28 UTC.
Position N 27°40' W 016°25'.
Warning: this ship's position is 8 days out of date.

Length 274 m; draft 9.1 m.

Type: Tanker. MMSI: 311000639.

Date/timePositionNaut miles runAvg speedWind from/ knotsBaromVisibWave heightAir tempDewpointWater temp
2017-Oct-08 08:01N 27°40' W 016°25'113.1
2017-Oct-08 07:55N 27°41' W 016°25'713.7
2017-Oct-08 07:22N 27°49' W 016°23'513.1
2017-Oct-08 06:59N 27°53' W 016°22'913.0
2017-Oct-08 06:16N 28°02' W 016°18'413.4
2017-Oct-08 05:59N 28°05' W 016°15'713.2
2017-Oct-08 05:27N 28°11' W 016°10'713.4
2017-Oct-08 04:57N 28°16' W 016°05'713.4
2017-Oct-08 04:27N 28°21' W 016°00'613.5
2017-Oct-08 04:00N 28°25' W 015°56'713.4
2017-Oct-08 03:29N 28°31' W 015°51'713.3
2017-Oct-08 03:00N 28°36' W 015°46'613.1
2017-Oct-08 02:30N 28°40' W 015°41'713.0
2017-Oct-08 02:00N 28°45' W 015°36'713.1
2017-Oct-08 01:30N 28°49' W 015°30'713.1
2017-Oct-08 01:00N 28°53' W 015°25'713.2
2017-Oct-08 00:30N 28°58' W 015°19'612.9
2017-Oct-08 00:00N 29°02' W 015°14'35412.8
2017-Oct-06 20:23N 33°03' W 010°10'713.1
2017-Oct-06 19:49N 33°08' W 010°03'513.1
2017-Oct-06 19:28N 33°11' W 009°59'613.0
2017-Oct-06 19:00N 33°15' W 009°54'713.2
2017-Oct-06 18:29N 33°20' W 009°48'713.4
2017-Oct-06 17:59N 33°24' W 009°42'713.5
2017-Oct-06 17:30N 33°29' W 009°36'713.5
2017-Oct-06 17:00N 33°33' W 009°30'713.3
2017-Oct-06 16:30N 33°38' W 009°24'713.4
2017-Oct-06 15:59N 33°43' W 009°18'613.4
2017-Oct-06 15:30N 33°47' W 009°13'613.0
2017-Oct-06 15:00N 33°52' W 009°07'713.0
2017-Oct-06 14:30N 33°56' W 009°01'713.1
2017-Oct-06 13:56N 34°01' W 008°54'4312.8
2017-Oct-06 10:35N 34°30' W 008°16'313.0
2017-Oct-06 10:21N 34°32' W 008°13'513.1
2017-Oct-06 09:59N 34°35' W 008°09'613.2
2017-Oct-06 09:30N 34°40' W 008°04'813.3
2017-Oct-06 08:56N 34°45' W 007°57'3613.2
2017-Oct-06 06:14N 35°09' W 007°25'312.6
2017-Oct-06 06:00N 35°11' W 007°22'1313.1
2017-Oct-06 05:01N 35°20' W 007°10'212.7
2017-Oct-06 04:49N 35°21' W 007°08'413.1
2017-Oct-06 04:30N 35°24' W 007°04'613.0
2017-Oct-06 04:00N 35°28' W 006°58'1012.8
2017-Oct-06 03:14N 35°35' W 006°50'312.8
2017-Oct-06 03:00N 35°37' W 006°47'1013.1
2017-Oct-06 02:13N 35°44' W 006°37'4312.9
2017-Oct-05 22:55N 35°58' W 005°48'1014.3
2017-Oct-05 22:14N 35°58' W 005°36'312.8
2017-Oct-05 22:00N 35°59' W 005°32'611.3
2017-Oct-05 21:30N 36°01' W 005°26'5 9.5
2017-Oct-05 21:01N 36°05' W 005°23'2 3.4
2017-Oct-05 20:28N 36°06' W 005°22'0 0.0
2017-Oct-05 19:58N 36°06' W 005°22'0 0.2
2017-Oct-05 19:28N 36°06' W 005°22'0 0.1
2017-Oct-05 18:55N 36°06' W 005°22'0 0.0
2017-Oct-05 18:28N 36°06' W 005°22'0 0.1
2017-Oct-05 17:58N 36°06' W 005°22'0 0.3
2017-Oct-05 17:28N 36°06' W 005°22'0 0.0
2017-Oct-05 16:58N 36°06' W 005°22'0 0.0
2017-Oct-05 15:28N 36°06' W 005°22'0 0.0
2017-Oct-05 14:52N 36°06' W 005°22'0 0.0
2017-Oct-05 14:28N 36°06' W 005°22'0 0.0
2017-Oct-05 13:58N 36°06' W 005°22'0 0.0
2017-Oct-05 13:28N 36°06' W 005°22'0 0.1
2017-Oct-05 12:58N 36°06' W 005°22'0 0.2
2017-Oct-05 12:28N 36°06' W 005°22'0 0.1
2017-Oct-05 11:55N 36°06' W 005°22'0 0.0
2017-Oct-05 11:28N 36°06' W 005°22'0 0.0
2017-Oct-05 10:58N 36°06' W 005°22'0 0.1
2017-Oct-05 10:28N 36°06' W 005°22'0 0.1
2017-Oct-05 09:58N 36°06' W 005°22'0 0.0
2017-Oct-05 09:28N 36°06' W 005°22'0 0.0
2017-Oct-05 08:55N 36°06' W 005°22'0 0.0
2017-Oct-05 08:28N 36°06' W 005°22'  

Dump ship's entire track history